sensor_id;sensor_type;location;lat;lon;timestamp;P1;durP1;ratioP1;P2;durP2;ratioP2
47764;SDS011;33529;49.242;8.670;2023-11-19T00:00:07;2.60;;;1.50;;
47764;SDS011;33529;49.242;8.670;2023-11-19T00:02:41;3.25;;;1.60;;
47764;SDS011;33529;49.242;8.670;2023-11-19T00:05:09;4.28;;;1.52;;
47764;SDS011;33529;49.242;8.670;2023-11-19T00:07:39;2.90;;;1.40;;
47764;SDS011;33529;49.242;8.670;2023-11-19T00:10:16;3.13;;;1.85;;
47764;SDS011;33529;49.242;8.670;2023-11-19T00:12:46;3.15;;;1.73;;
47764;SDS011;33529;49.242;8.670;2023-11-19T00:15:14;3.55;;;1.80;;
47764;SDS011;33529;49.242;8.670;2023-11-19T00:17:42;2.38;;;1.55;;
47764;SDS011;33529;49.242;8.670;2023-11-19T00:20:12;4.20;;;2.00;;
47764;SDS011;33529;49.242;8.670;2023-11-19T00:22:43;4.00;;;1.95;;
47764;SDS011;33529;49.242;8.670;2023-11-19T00:25:16;3.88;;;2.08;;
47764;SDS011;33529;49.242;8.670;2023-11-19T00:27:44;3.97;;;2.17;;
47764;SDS011;33529;49.242;8.670;2023-11-19T00:30:14;3.13;;;2.00;;
47764;SDS011;33529;49.242;8.670;2023-11-19T00:32:44;3.78;;;2.28;;
47764;SDS011;33529;49.242;8.670;2023-11-19T00:35:12;3.95;;;1.60;;
47764;SDS011;33529;49.242;8.670;2023-11-19T00:37:42;4.53;;;2.03;;
47764;SDS011;33529;49.242;8.670;2023-11-19T00:40:09;4.18;;;1.63;;
47764;SDS011;33529;49.242;8.670;2023-11-19T00:42:37;2.63;;;1.40;;
47764;SDS011;33529;49.242;8.670;2023-11-19T00:45:04;3.15;;;1.70;;
47764;SDS011;33529;49.242;8.670;2023-11-19T00:47:35;3.30;;;1.73;;
47764;SDS011;33529;49.242;8.670;2023-11-19T00:50:02;3.08;;;1.98;;
47764;SDS011;33529;49.242;8.670;2023-11-19T00:52:30;2.50;;;1.58;;
47764;SDS011;33529;49.242;8.670;2023-11-19T00:54:57;2.17;;;1.50;;
47764;SDS011;33529;49.242;8.670;2023-11-19T00:57:23;2.20;;;1.48;;
47764;SDS011;33529;49.242;8.670;2023-11-19T00:59:51;2.75;;;1.42;;
47764;SDS011;33529;49.242;8.670;2023-11-19T01:02:18;2.25;;;1.30;;
47764;SDS011;33529;49.242;8.670;2023-11-19T01:04:45;2.10;;;1.23;;
47764;SDS011;33529;49.242;8.670;2023-11-19T01:07:12;2.53;;;1.50;;
47764;SDS011;33529;49.242;8.670;2023-11-19T01:09:41;3.17;;;1.70;;
47764;SDS011;33529;49.242;8.670;2023-11-19T01:12:09;3.03;;;1.52;;
47764;SDS011;33529;49.242;8.670;2023-11-19T01:14:37;2.58;;;1.60;;
47764;SDS011;33529;49.242;8.670;2023-11-19T01:17:05;3.00;;;1.70;;
47764;SDS011;33529;49.242;8.670;2023-11-19T01:19:34;3.85;;;2.20;;
47764;SDS011;33529;49.242;8.670;2023-11-19T01:22:00;2.85;;;1.80;;
47764;SDS011;33529;49.242;8.670;2023-11-19T01:24:27;4.57;;;2.00;;
47764;SDS011;33529;49.242;8.670;2023-11-19T01:26:55;3.25;;;1.92;;
47764;SDS011;33529;49.242;8.670;2023-11-19T01:29:24;3.97;;;2.10;;
47764;SDS011;33529;49.242;8.670;2023-11-19T01:31:51;3.15;;;1.85;;
47764;SDS011;33529;49.242;8.670;2023-11-19T01:34:18;3.22;;;2.00;;
47764;SDS011;33529;49.242;8.670;2023-11-19T01:36:46;4.95;;;2.63;;
47764;SDS011;33529;49.242;8.670;2023-11-19T01:39:15;2.92;;;2.00;;
47764;SDS011;33529;49.242;8.670;2023-11-19T01:41:42;3.85;;;1.95;;
47764;SDS011;33529;49.242;8.670;2023-11-19T01:44:16;3.95;;;1.98;;
47764;SDS011;33529;49.242;8.670;2023-11-19T01:46:44;3.20;;;2.10;;
47764;SDS011;33529;49.242;8.670;2023-11-19T01:49:14;3.58;;;1.88;;
47764;SDS011;33529;49.242;8.670;2023-11-19T01:51:44;5.73;;;2.67;;
47764;SDS011;33529;49.242;8.670;2023-11-19T01:54:14;3.30;;;2.10;;
47764;SDS011;33529;49.242;8.670;2023-11-19T01:56:41;3.92;;;2.45;;
47764;SDS011;33529;49.242;8.670;2023-11-19T01:59:09;3.58;;;2.00;;
47764;SDS011;33529;49.242;8.670;2023-11-19T02:01:40;3.03;;;1.70;;
47764;SDS011;33529;49.242;8.670;2023-11-19T02:04:08;2.40;;;1.50;;
47764;SDS011;33529;49.242;8.670;2023-11-19T02:06:37;3.95;;;1.77;;
47764;SDS011;33529;49.242;8.670;2023-11-19T02:09:07;2.25;;;1.50;;
47764;SDS011;33529;49.242;8.670;2023-11-19T02:11:34;2.72;;;1.70;;
47764;SDS011;33529;49.242;8.670;2023-11-19T02:14:01;2.65;;;1.42;;
47764;SDS011;33529;49.242;8.670;2023-11-19T02:16:30;2.75;;;1.65;;
47764;SDS011;33529;49.242;8.670;2023-11-19T02:18:59;2.33;;;1.40;;
47764;SDS011;33529;49.242;8.670;2023-11-19T02:21:25;2.55;;;1.52;;
47764;SDS011;33529;49.242;8.670;2023-11-19T02:23:55;2.80;;;1.55;;
47764;SDS011;33529;49.242;8.670;2023-11-19T02:26:45;2.65;;;1.65;;
47764;SDS011;33529;49.242;8.670;2023-11-19T02:29:22;3.03;;;1.60;;
47764;SDS011;33529;49.242;8.670;2023-11-19T02:31:49;3.00;;;1.70;;
47764;SDS011;33529;49.242;8.670;2023-11-19T02:34:16;2.65;;;1.70;;
47764;SDS011;33529;49.242;8.670;2023-11-19T02:36:43;2.63;;;1.88;;
47764;SDS011;33529;49.242;8.670;2023-11-19T02:39:10;3.35;;;2.03;;
47764;SDS011;33529;49.242;8.670;2023-11-19T02:41:38;3.38;;;2.13;;
47764;SDS011;33529;49.242;8.670;2023-11-19T02:44:06;3.30;;;1.90;;
47764;SDS011;33529;49.242;8.670;2023-11-19T02:46:33;2.65;;;1.73;;
47764;SDS011;33529;49.242;8.670;2023-11-19T02:49:00;3.10;;;1.75;;
47764;SDS011;33529;49.242;8.670;2023-11-19T02:51:29;3.08;;;1.80;;
47764;SDS011;33529;49.242;8.670;2023-11-19T02:53:56;2.55;;;1.75;;
47764;SDS011;33529;49.242;8.670;2023-11-19T02:56:24;2.92;;;2.20;;
47764;SDS011;33529;49.242;8.670;2023-11-19T02:58:55;3.58;;;1.88;;
47764;SDS011;33529;49.242;8.670;2023-11-19T03:01:25;3.45;;;2.03;;
47764;SDS011;33529;49.242;8.670;2023-11-19T03:03:57;3.88;;;2.67;;
47764;SDS011;33529;49.242;8.670;2023-11-19T03:06:25;3.50;;;2.20;;
47764;SDS011;33529;49.242;8.670;2023-11-19T03:08:54;3.45;;;2.15;;
47764;SDS011;33529;49.242;8.670;2023-11-19T03:11:21;4.93;;;2.53;;
47764;SDS011;33529;49.242;8.670;2023-11-19T03:13:48;3.67;;;2.42;;
47764;SDS011;33529;49.242;8.670;2023-11-19T03:16:15;3.47;;;2.22;;
47764;SDS011;33529;49.242;8.670;2023-11-19T03:18:43;3.92;;;2.50;;
47764;SDS011;33529;49.242;8.670;2023-11-19T03:21:10;4.00;;;2.22;;
47764;SDS011;33529;49.242;8.670;2023-11-19T03:23:37;3.08;;;2.10;;
47764;SDS011;33529;49.242;8.670;2023-11-19T03:26:06;3.10;;;1.95;;
47764;SDS011;33529;49.242;8.670;2023-11-19T03:28:34;3.33;;;2.05;;
47764;SDS011;33529;49.242;8.670;2023-11-19T03:31:01;3.72;;;1.92;;
47764;SDS011;33529;49.242;8.670;2023-11-19T03:33:31;2.95;;;1.95;;
47764;SDS011;33529;49.242;8.670;2023-11-19T03:35:58;3.60;;;2.25;;
47764;SDS011;33529;49.242;8.670;2023-11-19T03:38:24;3.60;;;1.90;;
47764;SDS011;33529;49.242;8.670;2023-11-19T03:40:52;3.25;;;1.77;;
47764;SDS011;33529;49.242;8.670;2023-11-19T03:43:18;3.08;;;1.73;;
47764;SDS011;33529;49.242;8.670;2023-11-19T03:45:45;1.88;;;1.20;;
47764;SDS011;33529;49.242;8.670;2023-11-19T03:48:13;3.05;;;1.65;;
47764;SDS011;33529;49.242;8.670;2023-11-19T03:50:42;4.15;;;1.70;;
47764;SDS011;33529;49.242;8.670;2023-11-19T03:53:11;2.40;;;1.58;;
47764;SDS011;33529;49.242;8.670;2023-11-19T03:55:38;3.65;;;1.40;;
47764;SDS011;33529;49.242;8.670;2023-11-19T03:58:05;2.90;;;1.48;;
47764;SDS011;33529;49.242;8.670;2023-11-19T04:00:35;2.58;;;1.50;;
47764;SDS011;33529;49.242;8.670;2023-11-19T04:03:04;4.40;;;1.40;;
47764;SDS011;33529;49.242;8.670;2023-11-19T04:05:31;2.17;;;1.42;;
47764;SDS011;33529;49.242;8.670;2023-11-19T04:07:58;3.95;;;1.60;;
47764;SDS011;33529;49.242;8.670;2023-11-19T04:10:24;3.03;;;1.45;;
47764;SDS011;33529;49.242;8.670;2023-11-19T04:12:55;2.80;;;1.67;;
47764;SDS011;33529;49.242;8.670;2023-11-19T04:15:22;2.95;;;1.65;;
47764;SDS011;33529;49.242;8.670;2023-11-19T04:17:52;2.92;;;1.73;;
47764;SDS011;33529;49.242;8.670;2023-11-19T04:20:20;2.65;;;1.50;;
47764;SDS011;33529;49.242;8.670;2023-11-19T04:22:47;3.65;;;1.70;;
47764;SDS011;33529;49.242;8.670;2023-11-19T04:25:16;4.45;;;2.10;;
47764;SDS011;33529;49.242;8.670;2023-11-19T04:27:42;4.32;;;1.90;;
47764;SDS011;33529;49.242;8.670;2023-11-19T04:30:09;3.33;;;1.90;;
47764;SDS011;33529;49.242;8.670;2023-11-19T04:32:37;4.13;;;2.05;;
47764;SDS011;33529;49.242;8.670;2023-11-19T04:35:05;3.75;;;2.00;;
47764;SDS011;33529;49.242;8.670;2023-11-19T04:37:33;2.17;;;1.55;;
47764;SDS011;33529;49.242;8.670;2023-11-19T04:40:03;3.03;;;2.05;;
47764;SDS011;33529;49.242;8.670;2023-11-19T04:42:31;2.92;;;1.67;;
47764;SDS011;33529;49.242;8.670;2023-11-19T04:44:58;2.78;;;1.77;;
47764;SDS011;33529;49.242;8.670;2023-11-19T04:47:25;3.35;;;1.75;;
47764;SDS011;33529;49.242;8.670;2023-11-19T04:49:52;2.88;;;1.92;;
47764;SDS011;33529;49.242;8.670;2023-11-19T04:52:19;3.53;;;1.98;;
47764;SDS011;33529;49.242;8.670;2023-11-19T04:54:46;3.92;;;2.20;;
47764;SDS011;33529;49.242;8.670;2023-11-19T04:57:14;3.75;;;2.25;;
47764;SDS011;33529;49.242;8.670;2023-11-19T04:59:41;2.83;;;2.03;;
47764;SDS011;33529;49.242;8.670;2023-11-19T05:02:08;3.80;;;1.80;;
47764;SDS011;33529;49.242;8.670;2023-11-19T05:04:35;3.30;;;2.08;;
47764;SDS011;33529;49.242;8.670;2023-11-19T05:07:04;3.55;;;2.20;;
47764;SDS011;33529;49.242;8.670;2023-11-19T05:09:31;4.82;;;2.60;;
47764;SDS011;33529;49.242;8.670;2023-11-19T05:11:58;4.40;;;2.15;;
47764;SDS011;33529;49.242;8.670;2023-11-19T05:14:25;4.38;;;2.35;;
47764;SDS011;33529;49.242;8.670;2023-11-19T05:16:52;2.85;;;1.98;;
47764;SDS011;33529;49.242;8.670;2023-11-19T05:19:19;4.57;;;2.17;;
47764;SDS011;33529;49.242;8.670;2023-11-19T05:21:46;4.18;;;2.88;;
47764;SDS011;33529;49.242;8.670;2023-11-19T05:24:13;5.05;;;2.63;;
47764;SDS011;33529;49.242;8.670;2023-11-19T05:26:40;4.55;;;2.50;;
47764;SDS011;33529;49.242;8.670;2023-11-19T05:29:07;4.80;;;2.50;;
47764;SDS011;33529;49.242;8.670;2023-11-19T05:31:34;3.90;;;2.05;;
47764;SDS011;33529;49.242;8.670;2023-11-19T05:34:03;3.33;;;2.33;;
47764;SDS011;33529;49.242;8.670;2023-11-19T05:36:30;3.08;;;2.17;;
47764;SDS011;33529;49.242;8.670;2023-11-19T05:38:57;3.50;;;2.08;;
47764;SDS011;33529;49.242;8.670;2023-11-19T05:41:24;3.88;;;2.13;;
47764;SDS011;33529;49.242;8.670;2023-11-19T05:43:51;2.78;;;1.98;;
47764;SDS011;33529;49.242;8.670;2023-11-19T05:46:18;5.78;;;2.15;;
47764;SDS011;33529;49.242;8.670;2023-11-19T05:48:47;5.65;;;1.70;;
47764;SDS011;33529;49.242;8.670;2023-11-19T05:51:14;3.97;;;1.98;;
47764;SDS011;33529;49.242;8.670;2023-11-19T05:53:43;5.28;;;2.20;;
47764;SDS011;33529;49.242;8.670;2023-11-19T05:56:14;2.33;;;1.58;;
47764;SDS011;33529;49.242;8.670;2023-11-19T05:58:42;3.42;;;1.50;;
47764;SDS011;33529;49.242;8.670;2023-11-19T06:01:14;3.10;;;1.50;;
47764;SDS011;33529;49.242;8.670;2023-11-19T06:03:41;2.83;;;1.77;;
47764;SDS011;33529;49.242;8.670;2023-11-19T06:06:10;2.72;;;1.42;;
47764;SDS011;33529;49.242;8.670;2023-11-19T06:08:38;4.18;;;1.58;;
47764;SDS011;33529;49.242;8.670;2023-11-19T06:11:05;3.13;;;1.33;;
47764;SDS011;33529;49.242;8.670;2023-11-19T06:13:32;1.90;;;1.20;;
47764;SDS011;33529;49.242;8.670;2023-11-19T06:15:59;2.88;;;1.70;;
47764;SDS011;33529;49.242;8.670;2023-11-19T06:18:25;3.55;;;1.58;;
47764;SDS011;33529;49.242;8.670;2023-11-19T06:20:54;4.32;;;1.40;;
47764;SDS011;33529;49.242;8.670;2023-11-19T06:23:20;3.55;;;1.40;;
47764;SDS011;33529;49.242;8.670;2023-11-19T06:25:47;1.90;;;0.93;;
47764;SDS011;33529;49.242;8.670;2023-11-19T06:28:14;2.20;;;1.08;;
47764;SDS011;33529;49.242;8.670;2023-11-19T06:30:41;6.95;;;1.40;;
47764;SDS011;33529;49.242;8.670;2023-11-19T06:33:12;1.85;;;0.90;;
47764;SDS011;33529;49.242;8.670;2023-11-19T06:35:40;2.22;;;0.90;;
47764;SDS011;33529;49.242;8.670;2023-11-19T06:38:06;1.85;;;0.90;;
47764;SDS011;33529;49.242;8.670;2023-11-19T06:40:33;2.88;;;1.00;;
47764;SDS011;33529;49.242;8.670;2023-11-19T06:43:04;2.50;;;1.00;;
47764;SDS011;33529;49.242;8.670;2023-11-19T06:45:32;1.48;;;0.85;;
47764;SDS011;33529;49.242;8.670;2023-11-19T06:48:02;2.97;;;0.80;;
47764;SDS011;33529;49.242;8.670;2023-11-19T06:50:30;1.80;;;0.82;;
47764;SDS011;33529;49.242;8.670;2023-11-19T06:52:58;1.88;;;0.90;;
47764;SDS011;33529;49.242;8.670;2023-11-19T06:55:27;2.60;;;0.90;;
47764;SDS011;33529;49.242;8.670;2023-11-19T06:57:54;0.77;;;0.50;;
47764;SDS011;33529;49.242;8.670;2023-11-19T07:00:21;1.50;;;0.85;;
47764;SDS011;33529;49.242;8.670;2023-11-19T07:02:48;2.90;;;0.85;;
47764;SDS011;33529;49.242;8.670;2023-11-19T07:05:16;1.02;;;0.70;;
47764;SDS011;33529;49.242;8.670;2023-11-19T07:07:43;1.23;;;0.80;;
47764;SDS011;33529;49.242;8.670;2023-11-19T07:10:12;1.88;;;0.73;;
47764;SDS011;33529;49.242;8.670;2023-11-19T07:12:39;1.77;;;0.70;;
47764;SDS011;33529;49.242;8.670;2023-11-19T07:15:06;1.17;;;0.70;;
47764;SDS011;33529;49.242;8.670;2023-11-19T07:17:33;1.58;;;0.88;;
47764;SDS011;33529;49.242;8.670;2023-11-19T07:20:03;3.80;;;0.95;;
47764;SDS011;33529;49.242;8.670;2023-11-19T07:22:30;2.17;;;0.70;;
47764;SDS011;33529;49.242;8.670;2023-11-19T07:24:57;1.92;;;1.00;;
47764;SDS011;33529;49.242;8.670;2023-11-19T07:27:25;1.05;;;0.82;;
47764;SDS011;33529;49.242;8.670;2023-11-19T07:29:51;0.98;;;0.70;;
47764;SDS011;33529;49.242;8.670;2023-11-19T07:32:18;1.15;;;0.70;;
47764;SDS011;33529;49.242;8.670;2023-11-19T07:34:45;1.98;;;0.70;;
47764;SDS011;33529;49.242;8.670;2023-11-19T07:37:12;1.13;;;0.60;;
47764;SDS011;33529;49.242;8.670;2023-11-19T07:39:39;1.15;;;0.60;;
47764;SDS011;33529;49.242;8.670;2023-11-19T07:42:07;2.35;;;0.73;;
47764;SDS011;33529;49.242;8.670;2023-11-19T07:44:35;0.88;;;0.57;;
47764;SDS011;33529;49.242;8.670;2023-11-19T07:47:03;3.20;;;0.85;;
47764;SDS011;33529;49.242;8.670;2023-11-19T07:49:30;1.38;;;0.77;;
47764;SDS011;33529;49.242;8.670;2023-11-19T07:51:57;1.80;;;0.90;;
47764;SDS011;33529;49.242;8.670;2023-11-19T07:54:24;2.40;;;0.88;;
47764;SDS011;33529;49.242;8.670;2023-11-19T07:56:51;1.42;;;0.77;;
47764;SDS011;33529;49.242;8.670;2023-11-19T07:59:17;3.72;;;0.90;;
47764;SDS011;33529;49.242;8.670;2023-11-19T08:01:44;1.98;;;0.75;;
47764;SDS011;33529;49.242;8.670;2023-11-19T08:04:11;1.60;;;0.95;;
47764;SDS011;33529;49.242;8.670;2023-11-19T08:06:38;2.58;;;1.10;;
47764;SDS011;33529;49.242;8.670;2023-11-19T08:09:05;1.85;;;1.00;;
47764;SDS011;33529;49.242;8.670;2023-11-19T08:11:33;2.53;;;1.00;;
47764;SDS011;33529;49.242;8.670;2023-11-19T08:14:00;1.65;;;0.93;;
47764;SDS011;33529;49.242;8.670;2023-11-19T08:16:27;2.72;;;1.02;;
47764;SDS011;33529;49.242;8.670;2023-11-19T08:18:54;6.35;;;1.10;;
47764;SDS011;33529;49.242;8.670;2023-11-19T08:21:20;2.88;;;0.98;;
47764;SDS011;33529;49.242;8.670;2023-11-19T08:23:49;3.10;;;0.70;;
47764;SDS011;33529;49.242;8.670;2023-11-19T08:26:16;0.95;;;0.70;;
47764;SDS011;33529;49.242;8.670;2023-11-19T08:28:47;2.03;;;0.85;;
47764;SDS011;33529;49.242;8.670;2023-11-19T08:31:14;1.02;;;0.57;;
47764;SDS011;33529;49.242;8.670;2023-11-19T08:33:41;2.83;;;1.00;;
47764;SDS011;33529;49.242;8.670;2023-11-19T08:36:08;3.20;;;1.00;;
47764;SDS011;33529;49.242;8.670;2023-11-19T08:38:35;1.25;;;0.65;;
47764;SDS011;33529;49.242;8.670;2023-11-19T08:41:02;1.60;;;0.60;;
47764;SDS011;33529;49.242;8.670;2023-11-19T08:43:29;1.40;;;0.57;;
47764;SDS011;33529;49.242;8.670;2023-11-19T08:45:57;2.22;;;0.65;;
47764;SDS011;33529;49.242;8.670;2023-11-19T08:48:24;1.65;;;0.80;;
47764;SDS011;33529;49.242;8.670;2023-11-19T08:50:52;2.10;;;0.77;;
47764;SDS011;33529;49.242;8.670;2023-11-19T08:53:19;3.72;;;1.20;;
47764;SDS011;33529;49.242;8.670;2023-11-19T08:55:46;3.35;;;1.02;;
47764;SDS011;33529;49.242;8.670;2023-11-19T08:58:13;2.28;;;0.90;;
47764;SDS011;33529;49.242;8.670;2023-11-19T09:00:39;1.48;;;0.70;;
47764;SDS011;33529;49.242;8.670;2023-11-19T09:03:06;2.05;;;0.82;;
47764;SDS011;33529;49.242;8.670;2023-11-19T09:05:36;5.07;;;1.10;;
47764;SDS011;33529;49.242;8.670;2023-11-19T09:08:03;1.92;;;0.70;;
47764;SDS011;33529;49.242;8.670;2023-11-19T09:10:31;1.80;;;0.90;;
47764;SDS011;33529;49.242;8.670;2023-11-19T09:12:58;1.60;;;0.90;;
47764;SDS011;33529;49.242;8.670;2023-11-19T09:15:25;2.20;;;0.70;;
47764;SDS011;33529;49.242;8.670;2023-11-19T09:17:52;1.73;;;0.90;;
47764;SDS011;33529;49.242;8.670;2023-11-19T09:20:19;1.77;;;0.82;;
47764;SDS011;33529;49.242;8.670;2023-11-19T09:22:48;1.95;;;1.17;;
47764;SDS011;33529;49.242;8.670;2023-11-19T09:25:15;1.35;;;0.75;;
47764;SDS011;33529;49.242;8.670;2023-11-19T09:27:43;3.88;;;1.33;;
47764;SDS011;33529;49.242;8.670;2023-11-19T09:30:10;1.58;;;0.90;;
47764;SDS011;33529;49.242;8.670;2023-11-19T09:32:39;2.55;;;1.00;;
47764;SDS011;33529;49.242;8.670;2023-11-19T09:35:07;2.58;;;0.77;;
47764;SDS011;33529;49.242;8.670;2023-11-19T09:37:36;2.95;;;1.08;;
47764;SDS011;33529;49.242;8.670;2023-11-19T09:40:03;1.48;;;0.90;;
47764;SDS011;33529;49.242;8.670;2023-11-19T09:42:30;2.05;;;0.90;;
47764;SDS011;33529;49.242;8.670;2023-11-19T09:45:07;2.20;;;0.93;;
47764;SDS011;33529;49.242;8.670;2023-11-19T09:47:42;0.80;;;0.52;;
47764;SDS011;33529;49.242;8.670;2023-11-19T09:50:14;3.13;;;0.98;;
47764;SDS011;33529;49.242;8.670;2023-11-19T09:52:49;1.60;;;0.80;;
47764;SDS011;33529;49.242;8.670;2023-11-19T09:55:16;2.47;;;0.80;;
47764;SDS011;33529;49.242;8.670;2023-11-19T09:57:44;2.60;;;1.17;;
47764;SDS011;33529;49.242;8.670;2023-11-19T10:00:13;2.67;;;1.10;;
47764;SDS011;33529;49.242;8.670;2023-11-19T10:02:42;2.60;;;1.13;;
47764;SDS011;33529;49.242;8.670;2023-11-19T10:05:16;1.55;;;0.80;;
47764;SDS011;33529;49.242;8.670;2023-11-19T10:07:47;1.80;;;1.00;;
47764;SDS011;33529;49.242;8.670;2023-11-19T10:10:14;1.45;;;0.82;;
47764;SDS011;33529;49.242;8.670;2023-11-19T10:12:45;2.13;;;1.10;;
47764;SDS011;33529;49.242;8.670;2023-11-19T10:15:21;2.45;;;1.17;;
47764;SDS011;33529;49.242;8.670;2023-11-19T10:17:51;2.03;;;1.02;;
47764;SDS011;33529;49.242;8.670;2023-11-19T10:20:22;2.33;;;1.25;;
47764;SDS011;33529;49.242;8.670;2023-11-19T10:25:25;4.13;;;1.20;;
47764;SDS011;33529;49.242;8.670;2023-11-19T10:27:53;3.08;;;1.50;;
47764;SDS011;33529;49.242;8.670;2023-11-19T10:30:24;2.30;;;1.20;;
47764;SDS011;33529;49.242;8.670;2023-11-19T10:33:28;3.67;;;1.10;;
47764;SDS011;33529;49.242;8.670;2023-11-19T10:38:23;3.35;;;1.23;;
47764;SDS011;33529;49.242;8.670;2023-11-19T10:40:51;1.92;;;0.80;;
47764;SDS011;33529;49.242;8.670;2023-11-19T10:43:18;2.70;;;1.17;;
47764;SDS011;33529;49.242;8.670;2023-11-19T10:45:49;2.63;;;1.17;;
47764;SDS011;33529;49.242;8.670;2023-11-19T10:48:16;2.45;;;1.15;;
47764;SDS011;33529;49.242;8.670;2023-11-19T10:50:43;3.22;;;1.52;;
47764;SDS011;33529;49.242;8.670;2023-11-19T10:53:12;4.85;;;1.40;;
47764;SDS011;33529;49.242;8.670;2023-11-19T10:55:39;2.97;;;1.20;;
47764;SDS011;33529;49.242;8.670;2023-11-19T10:58:07;2.22;;;1.10;;
47764;SDS011;33529;49.242;8.670;2023-11-19T11:00:47;1.63;;;0.93;;
47764;SDS011;33529;49.242;8.670;2023-11-19T11:03:19;2.65;;;1.10;;
47764;SDS011;33529;49.242;8.670;2023-11-19T11:05:47;2.53;;;1.35;;
47764;SDS011;33529;49.242;8.670;2023-11-19T11:08:15;2.28;;;1.38;;
47764;SDS011;33529;49.242;8.670;2023-11-19T11:10:44;4.22;;;2.50;;
47764;SDS011;33529;49.242;8.670;2023-11-19T11:13:26;3.42;;;1.33;;
47764;SDS011;33529;49.242;8.670;2023-11-19T11:15:57;2.08;;;1.23;;
47764;SDS011;33529;49.242;8.670;2023-11-19T11:18:25;2.80;;;1.42;;
47764;SDS011;33529;49.242;8.670;2023-11-19T11:20:58;2.63;;;1.20;;
47764;SDS011;33529;49.242;8.670;2023-11-19T11:23:35;2.95;;;1.25;;
47764;SDS011;33529;49.242;8.670;2023-11-19T11:29:04;3.17;;;1.00;;
47764;SDS011;33529;49.242;8.670;2023-11-19T11:39:24;1.77;;;0.90;;
47764;SDS011;33529;49.242;8.670;2023-11-19T11:48:06;3.00;;;1.23;;
47764;SDS011;33529;49.242;8.670;2023-11-19T11:50:46;3.60;;;1.10;;
47764;SDS011;33529;49.242;8.670;2023-11-19T11:53:19;3.35;;;1.58;;
47764;SDS011;33529;49.242;8.670;2023-11-19T11:58:22;5.63;;;1.65;;
47764;SDS011;33529;49.242;8.670;2023-11-19T12:00:53;5.90;;;1.90;;
47764;SDS011;33529;49.242;8.670;2023-11-19T12:03:21;7.97;;;2.30;;
47764;SDS011;33529;49.242;8.670;2023-11-19T12:05:49;2.88;;;1.30;;
47764;SDS011;33529;49.242;8.670;2023-11-19T12:08:20;3.33;;;1.52;;
47764;SDS011;33529;49.242;8.670;2023-11-19T12:10:53;3.70;;;1.20;;
47764;SDS011;33529;49.242;8.670;2023-11-19T12:13:24;5.35;;;1.40;;
47764;SDS011;33529;49.242;8.670;2023-11-19T12:18:29;2.65;;;1.17;;
47764;SDS011;33529;49.242;8.670;2023-11-19T12:20:59;3.60;;;1.63;;
47764;SDS011;33529;49.242;8.670;2023-11-19T12:23:31;4.82;;;1.77;;
47764;SDS011;33529;49.242;8.670;2023-11-19T12:25:59;5.95;;;1.67;;
47764;SDS011;33529;49.242;8.670;2023-11-19T12:28:26;3.58;;;1.48;;
47764;SDS011;33529;49.242;8.670;2023-11-19T12:30:54;3.75;;;1.50;;
47764;SDS011;33529;49.242;8.670;2023-11-19T12:33:35;2.90;;;1.80;;
47764;SDS011;33529;49.242;8.670;2023-11-19T12:36:03;5.70;;;1.83;;
47764;SDS011;33529;49.242;8.670;2023-11-19T12:38:33;3.78;;;1.52;;
47764;SDS011;33529;49.242;8.670;2023-11-19T12:41:07;3.13;;;1.20;;
47764;SDS011;33529;49.242;8.670;2023-11-19T12:43:38;4.18;;;1.30;;
47764;SDS011;33529;49.242;8.670;2023-11-19T12:48:47;2.70;;;1.25;;
47764;SDS011;33529;49.242;8.670;2023-11-19T12:51:18;4.40;;;1.20;;
47764;SDS011;33529;49.242;8.670;2023-11-19T12:53:51;2.65;;;0.98;;
47764;SDS011;33529;49.242;8.670;2023-11-19T12:56:24;2.92;;;1.52;;
47764;SDS011;33529;49.242;8.670;2023-11-19T12:58:51;3.20;;;1.30;;
47764;SDS011;33529;49.242;8.670;2023-11-19T13:01:18;4.53;;;1.95;;
47764;SDS011;33529;49.242;8.670;2023-11-19T13:03:47;3.15;;;1.10;;
47764;SDS011;33529;49.242;8.670;2023-11-19T13:06:18;2.88;;;1.10;;
47764;SDS011;33529;49.242;8.670;2023-11-19T13:08:50;1.95;;;1.20;;
47764;SDS011;33529;49.242;8.670;2023-11-19T13:14:07;2.17;;;0.90;;
47764;SDS011;33529;49.242;8.670;2023-11-19T13:16:38;3.03;;;0.95;;
47764;SDS011;33529;49.242;8.670;2023-11-19T13:19:05;6.53;;;1.30;;
47764;SDS011;33529;49.242;8.670;2023-11-19T13:21:32;3.17;;;1.30;;
47764;SDS011;33529;49.242;8.670;2023-11-19T13:24:00;3.25;;;1.27;;
47764;SDS011;33529;49.242;8.670;2023-11-19T13:26:27;4.00;;;1.40;;
47764;SDS011;33529;49.242;8.670;2023-11-19T13:28:54;2.80;;;1.35;;
47764;SDS011;33529;49.242;8.670;2023-11-19T13:31:24;2.42;;;1.15;;
47764;SDS011;33529;49.242;8.670;2023-11-19T13:33:51;3.50;;;1.13;;
47764;SDS011;33529;49.242;8.670;2023-11-19T13:36:18;3.40;;;1.30;;
47764;SDS011;33529;49.242;8.670;2023-11-19T13:38:46;3.40;;;1.40;;
47764;SDS011;33529;49.242;8.670;2023-11-19T13:41:13;2.90;;;1.05;;
47764;SDS011;33529;49.242;8.670;2023-11-19T13:43:40;1.60;;;0.90;;
47764;SDS011;33529;49.242;8.670;2023-11-19T13:46:07;3.20;;;1.23;;
47764;SDS011;33529;49.242;8.670;2023-11-19T13:48:39;1.75;;;0.88;;
47764;SDS011;33529;49.242;8.670;2023-11-19T13:51:06;2.20;;;1.17;;
47764;SDS011;33529;49.242;8.670;2023-11-19T13:53:33;2.92;;;1.20;;
47764;SDS011;33529;49.242;8.670;2023-11-19T13:56:17;3.28;;;1.45;;
47764;SDS011;33529;49.242;8.670;2023-11-19T13:58:44;2.92;;;1.23;;
47764;SDS011;33529;49.242;8.670;2023-11-19T14:01:11;3.38;;;1.15;;
47764;SDS011;33529;49.242;8.670;2023-11-19T14:03:39;2.45;;;1.35;;
47764;SDS011;33529;49.242;8.670;2023-11-19T14:06:06;1.83;;;1.10;;
47764;SDS011;33529;49.242;8.670;2023-11-19T14:08:34;4.22;;;1.23;;
47764;SDS011;33529;49.242;8.670;2023-11-19T14:11:01;1.48;;;0.82;;
47764;SDS011;33529;49.242;8.670;2023-11-19T14:13:29;2.47;;;0.98;;
47764;SDS011;33529;49.242;8.670;2023-11-19T14:15:55;2.58;;;1.27;;
47764;SDS011;33529;49.242;8.670;2023-11-19T14:18:22;4.30;;;1.38;;
47764;SDS011;33529;49.242;8.670;2023-11-19T14:20:50;3.63;;;1.30;;
47764;SDS011;33529;49.242;8.670;2023-11-19T14:23:18;2.35;;;1.08;;
47764;SDS011;33529;49.242;8.670;2023-11-19T14:25:45;3.55;;;1.55;;
47764;SDS011;33529;49.242;8.670;2023-11-19T14:28:12;5.88;;;1.60;;
47764;SDS011;33529;49.242;8.670;2023-11-19T14:30:39;3.17;;;1.17;;
47764;SDS011;33529;49.242;8.670;2023-11-19T14:33:08;2.58;;;1.27;;
47764;SDS011;33529;49.242;8.670;2023-11-19T14:35:35;2.20;;;1.08;;
47764;SDS011;33529;49.242;8.670;2023-11-19T14:38:02;4.15;;;1.33;;
47764;SDS011;33529;49.242;8.670;2023-11-19T14:40:31;3.42;;;1.23;;
47764;SDS011;33529;49.242;8.670;2023-11-19T14:43:01;5.15;;;1.52;;
47764;SDS011;33529;49.242;8.670;2023-11-19T14:45:28;3.08;;;1.20;;
47764;SDS011;33529;49.242;8.670;2023-11-19T14:48:04;3.00;;;1.00;;
47764;SDS011;33529;49.242;8.670;2023-11-19T14:50:31;3.00;;;1.15;;
47764;SDS011;33529;49.242;8.670;2023-11-19T14:52:58;3.55;;;1.00;;
47764;SDS011;33529;49.242;8.670;2023-11-19T14:55:25;4.13;;;1.55;;
47764;SDS011;33529;49.242;8.670;2023-11-19T14:57:52;5.90;;;1.50;;
47764;SDS011;33529;49.242;8.670;2023-11-19T15:00:31;4.03;;;1.38;;
47764;SDS011;33529;49.242;8.670;2023-11-19T15:03:01;4.38;;;1.35;;
47764;SDS011;33529;49.242;8.670;2023-11-19T15:05:28;2.33;;;0.93;;
47764;SDS011;33529;49.242;8.670;2023-11-19T15:07:55;3.88;;;1.00;;
47764;SDS011;33529;49.242;8.670;2023-11-19T15:10:24;3.13;;;1.27;;
47764;SDS011;33529;49.242;8.670;2023-11-19T15:12:52;5.97;;;1.60;;
47764;SDS011;33529;49.242;8.670;2023-11-19T15:15:20;4.35;;;1.48;;
47764;SDS011;33529;49.242;8.670;2023-11-19T15:17:49;2.78;;;1.30;;
47764;SDS011;33529;49.242;8.670;2023-11-19T15:20:17;4.30;;;1.40;;
47764;SDS011;33529;49.242;8.670;2023-11-19T15:22:45;2.25;;;1.17;;
47764;SDS011;33529;49.242;8.670;2023-11-19T15:25:12;5.07;;;1.55;;
47764;SDS011;33529;49.242;8.670;2023-11-19T15:27:39;2.95;;;1.10;;